Terminal Aerodrome Forecast
Issued by NWS Detroit/Pontiac, MI

Home | Current Version | Previous Version | Text Only | Print | Product List | Glossary On
Versions: 1 2 3 4 5 6 7 8 9 10 11 12 13 14 15 16 17 18 19 20 21 22 23 24 25
000
FTUS43 KDTX 031455 AAA
TAFDTW
TAF AMD
KDTW 031455Z 0315/0418 25007KT P6SM SCT028 OVC035
     FM031700 26006KT P6SM BKN028
     FM032000 24006KT P6SM BKN035
     FM040600 23005KT P6SM SCT035 OVC150
     FM041400 19005KT P6SM BKN030 OVC100=

USA.gov is the U.S. government's official web portal to all federal, state and local government web resources and services.